This is the latest recevied weather packets stored in our database for station/object KB3UQE. If no packets are shown the sender has not sent any weather packets the latest 10 day(s).
| Time | Temp. | Humidity | Pressure | Rain* | Wind** | Luminosity | Snow |
|---|---|---|---|---|---|---|---|
| 1777301599 | 20° C | 52% | 1023.4 hPa | - | - | - | - |
| 1777301574 | 20° C | 52% | 1023.4 hPa | - | - | - | - |
| 1777300519 | 18.89° C | 53% | 1023.6 hPa | - | - | - | - |
| 1777300492 | 18.89° C | 53% | 1023.6 hPa | - | - | - | - |
| 1777299439 | 17.78° C | 53% | 1023.6 hPa | - | - | - | - |
| 1777299412 | 17.78° C | 53% | 1023.6 hPa | - | - | - | - |
| 1777298359 | 17.22° C | 53% | 1023.6 hPa | - | - | - | - |
| 1777298333 | 17.22° C | 53% | 1023.6 hPa | - | - | - | - |
| 1777297279 | 16.67° C | 54% | 1023.6 hPa | - | - | - | - |
| 1777297255 | 16.67° C | 54% | 1023.6 hPa | - | - | - | - |
| 1777296061 | 15° C | 54% | 1023.6 hPa | - | - | - | - |
| 1777294801 | 13.33° C | 55% | 1023.4 hPa | - | - | - | - |
| 1777293377 | 12.22° C | 54% | 1023.2 hPa | - | - | - | - |
| 1777293360 | 12.22° C | 54% | 1023.2 hPa | - | - | - | - |
| 1777291577 | 10° C | 55% | 1022.9 hPa | - | - | - | - |
| 1777291560 | 10° C | 55% | 1022.9 hPa | - | - | - | - |
| 1777289777 | 7.78° C | 55% | 1022.4 hPa | - | - | - | - |
| 1777289759 | 7.78° C | 55% | 1022.4 hPa | - | - | - | - |
| 1777287977 | 6.11° C | 56% | 1022.1 hPa | - | - | - | - |
| 1777287959 | 6.11° C | 56% | 1022.1 hPa | - | - | - | - |
| 1777286163 | 5.56° C | 56% | 1021.8 hPa | - | - | - | - |
| 1777284376 | 5° C | 57% | 1021.5 hPa | - | - | - | - |
| 1777284359 | 5° C | 57% | 1021.5 hPa | - | - | - | - |
| 1777282936 | 5° C | 57% | 1021.4 hPa | - | - | - | - |
| 1777282919 | 5° C | 57% | 1021.4 hPa | - | - | - | - |
* Rain since midnight (hover to see other rain measurements)
** Current wind speed in m/s (hover to see current wind gust speed)